Curdworth, United Kingdom
Current Conditions -  °F | °C
As of 10:20 PM on Thursday 18 Dec 2014 (Local Time) from EGBB Reporting Station
Overcast Overcast  
Wind Chill: 55°   Ceiling: 2100
Heat Index: 55°   Visibility: 6mi
Dew Point: 50°   Wind: 7mph
Humidity: 82%   Direction: 190°S
Pressure: 29.71"   Gusts: NA
Location:  52.53°N, 1.74°W
Report Text: EGBB 182220Z AUTO 19006KT 160V250 9999 OVC021/// 13/10 Q1006
Loading
Personal Weather Stations






























Interactive Weather Map New forecast layout! Learn more

10-Day Weather Forecast

Advertisements
Track Severe Weather on mobile